CheckWX is a tool to help pilots better visualize weather data.  It is not intended as a substitute for an official pre-flight weather briefing.

08:59:45 UTC

KDYL METAR
Doylestown Airport
Doylestown, Pennsylvania, USA
Current

1 hour ago

KDYL 190754Z AUTO 00000KT 10SM SCT095 BKN120 16/10 A3006 RMK AO2 SLP175 T01560100
Observed
May-19 @ 07:54 UTC
Visibility
10 SM
Flight Rules
VFR
Cloud Levels
  • Scattered at 9,500' AGL
  • Broken at 12,000' AGL
Temperature
16°C / 61°F
Dewpoint
10°C / 50°F
Humidity
68%
Altimeter
30.06" Hg
Pressure
1017.92 hPa
Previous

2 hours ago

KDYL 190654Z AUTO 00000KT 10SM FEW040 BKN049 14/10 A3005 RMK AO2 SLP174 T01440100
Observed
May-19 @ 06:54 UTC
Visibility
10 SM
Flight Rules
VFR
Cloud Levels
  • Few at 4,000' AGL
  • Broken at 4,900' AGL
Temperature
14°C / 57°F
Dewpoint
10°C / 50°F
Humidity
77%
Altimeter
30.05" Hg
Pressure
1017.62 hPa
Previous

3 hours ago

KDYL 190554Z AUTO 17003KT 10SM CLR 15/09 A3006 RMK AO2 SLP175 T01500089 10222 20150 50002
Observed
May-19 @ 05:54 UTC
Wind
  • 170° at 3 KTS
Visibility
10 SM
Flight Rules
VFR
Cloud Levels
  • Clear skies
Temperature
15°C / 59°F
Dewpoint
C / 48°F
Humidity
68%
Altimeter
30.06" Hg
Pressure
1017.92 hPa